METAR v bližini

 

LJLJ - Ljubljana/Brnik, Slovenia
Oddaljenost od postaje: W 41km
Podatki zajeti: 28/07/2021 08:30
Rahlo oblačno
Rahlo oblačno
 Veter iz smeri SW
Veter: SW 2 km/h
Temperatura: 20°C
Rosišče: 16°C
Vlažnost: 78%
Tlak: 1016 hPa
Oblačnost: Rahlo oblačno
Vidljivost: 10 km
Podrobnosti o oblakih: Rahlo oblačno 1829 m
2021/07/28 06:30 LJLJ 280630Z 23001KT 9999 FEW060 20/16 Q1016 NOSIG
LJMB - Maribor, Slovenia
Oddaljenost od postaje: NE 63km
Podatki zajeti: 28/07/2021 08:30
Jasno
Jasno
 Veter iz smeri S
Veter: S 13 km/h
Temperatura: 24°C
Rosišče: 16°C
Vlažnost: 61%
Tlak: 1014 hPa
Stanje: Jasno
Vidljivost: večja od 10 km
2021/07/28 06:30 LJMB 280630Z 18007KT CAVOK 24/16 Q1014
 
LJPZ - Portoroz, Slovenia
Oddaljenost od postaje: SW 130km
Podatki zajeti: 28/07/2021 08:30
Jasno
Jasno
 Veter iz smeri spremenljiv
Veter: spremenljiv 4 km/h
Temperatura: 24°C
Rosišče: 18°C
Vlažnost: 69%
Tlak: 1014 hPa
Stanje: Jasno
Vidljivost: večja od 10 km
2021/07/28 06:30 LJPZ 280630Z VRB02KT CAVOK 24/18 Q1014
LJCE - Cerklje, Slovenia
Oddaljenost od postaje: ESE 49km
Podatki zajeti: 28/07/2021 08:30
Jasno
Jasno
 Veter iz smeri spremenljiv
Veter: spremenljiv 6 km/h
Temperatura: 23°C
Rosišče: 17°C
Vlažnost: 69%
Tlak: 1015 hPa
Oblačnost: Jasno
Vidljivost: 10 km
2021/07/28 06:30 LJCE 280630Z AUTO VRB03KT 9999 NCD 23/17 Q1015
 
LDZA - Zagreb/Pleso, Croatia
Oddaljenost od postaje: ESE 96km
Podatki zajeti: 28/07/2021 08:30
Jasno
Jasno
 Veter iz smeri WSW
Veter: WSW 6 km/h
Temperatura: 23°C
Rosišče: 19°C
Vlažnost: 78%
Tlak: 1014 hPa
Stanje: Jasno
Vidljivost: večja od 10 km
2021/07/28 06:30 LDZA 280630Z 25003KT 210V310 CAVOK 23/19 Q1014 NOSIG
LDRI - Rijeka/Omisalj, Croatia
Oddaljenost od postaje: SSW 109km
Podatki zajeti: 28/07/2021 08:30
Rahlo oblačno
Rahlo oblačno
 Veter iz smeri calm
Veter: Calm
Temperatura: 25°C
Rosišče: 20°C
Vlažnost: 74%
Tlak: 1015 hPa
Oblačnost: Rahlo oblačno
Vidljivost: 10 km
Podrobnosti o oblakih: Rahlo oblačno 1524 m
2021/07/28 06:30 LDRI 280630Z 00000KT 9999 FEW050 25/20 Q1015
 
LDPL - Pula, Croatia
Oddaljenost od postaje: SSW 164km
Podatki zajeti: 28/07/2021 08:30
Jasno
Jasno
 Veter iz smeri ESE
Veter: ESE 13 km/h
Temperatura: 26°C
Rosišče: 21°C
Vlažnost: 74%
Tlak: 1014 hPa
Stanje: Jasno
Vidljivost: večja od 10 km
2021/07/28 06:30 LDPL 280630Z 11007KT 080V150 CAVOK 26/21 Q1014 NOSIG
LOWK - Klagenfurt(Civ/M, Austria
Oddaljenost od postaje: NW 76km
Podatki zajeti: 28/07/2021 08:20
Rahlo oblačno
Rahlo oblačno
 Veter iz smeri spremenljiv
Veter: spremenljiv 4 km/h
Temperatura: 20°C
Rosišče: 16°C
Vlažnost: 78%
Tlak: 1016 hPa
Oblačnost: Rahlo oblačno
Vidljivost: 10 km
Podrobnosti o oblakih: Rahlo oblačno 213 m
2021/07/28 06:20 LOWK 280620Z VRB02KT 9999 FEW007 20/16 Q1016 NOSIG
 
LOWG - Graz (mil/Civ), Austria
Oddaljenost od postaje: NNE 100km
Podatki zajeti: 28/07/2021 08:20
Rahlo oblačno
Rahlo oblačno
 Veter iz smeri spremenljiv
Veter: spremenljiv 4 km/h
Temperatura: 24°C
Rosišče: 16°C
Vlažnost: 61%
Tlak: 1014 hPa
Oblačnost: Rahlo oblačno
Vidljivost: 10 km
Podrobnosti o oblakih: Rahlo oblačno 1829 m
2021/07/28 06:20 LOWG 280620Z VRB02KT 9999 FEW060 24/16 Q1014 NOSIG
LOAN - Wr.neustadt East, Austria
Oddaljenost od postaje: NNE 212km
Podatki zajeti: 27/07/2021 21:00
Ni posodobljen
Jasno
Jasno
 Veter iz smeri S
Veter: S 9 km/h
Stanje: Jasno
Vidljivost: večja od 10 km
2021/07/27 19:00 LOAN 271900Z 17005KT CAVOK
 
LIPQ - Ronchi Legionari, Italy
Oddaljenost od postaje: SW 35km
Podatki zajeti: 28/07/2021 08:20
Rahlo oblačno
Rahlo oblačno
 Veter iz smeri ESE
Veter: ESE 7 km/h
Temperatura: 24°C
Rosišče: 18°C
Vlažnost: 69%
Tlak: 1014 hPa
Oblačnost: Rahlo oblačno
Vidljivost: 10 km
Podrobnosti o oblakih: Rahlo oblačno 3048 m
2021/07/28 06:20 LIPQ 280620Z AUTO 11004KT 9999 FEW100/// 24/18 Q1014
LIVT - Trieste, Italy
Oddaljenost od postaje: WSW 109km
Podatki zajeti: 28/07/2021 07:55
Delno oblačno
Delno oblačno
 Veter iz smeri calm
Veter: Calm
Temperatura: 24°C
Rosišče: 19°C
Vlažnost: 74%
Tlak: 1013 hPa
Oblačnost: Delno oblačno
Vidljivost: 10 km
Podrobnosti o oblakih: Delno oblačno 914 m
2021/07/28 05:55 LIVT 280555Z 00000KT 9999 SCT030 24/19 Q1013 RMK SCT QUK 0 QUL 0 VIS MAR 20 KM VIS MIN 9999
 
LIVO - Tarvisio, Italy
Oddaljenost od postaje: NNW 49km
Podatki zajeti: 28/07/2021 07:55
Rahlo oblačno
Rahlo oblačno
 Veter iz smeri calm
Veter: Calm
Temperatura: 14°C
Rosišče: 13°C
Vlažnost: 94%
Tlak: 1017 hPa
Oblačnost: Rahlo oblačno
Vidljivost: 10 km
Podrobnosti o oblakih: Rahlo oblačno 610 m
2021/07/28 05:55 LIVO 280555Z 00000KT 9999 FEW020 14/13 Q1017 RMK FEW VIS MIN 9999
LIPZ - Venezia/Tessera, Italy
Oddaljenost od postaje: WSW 217km
Podatki zajeti: 28/07/2021 08:20
Jasno
Jasno
 Veter iz smeri NE
Veter: NE 7 km/h
Temperatura: 22°C
Rosišče: 18°C
Vlažnost: 78%
Tlak: 1014 hPa
Stanje: Jasno
Vidljivost: večja od 10 km
2021/07/28 06:20 LIPZ 280620Z 04004KT CAVOK 22/18 Q1014 NOSIG
 
LHSM - Balaton, Hungary
Oddaljenost od postaje: ENE 177km
Podatki zajeti: 28/07/2021 08:15
Jasno
Jasno
 Veter iz smeri spremenljiv
Veter: spremenljiv 4 km/h
Temperatura: 24°C
Rosišče: 20°C
Vlažnost: 78%
Tlak: 1014 hPa
Oblačnost: Jasno
Vidljivost: 8 km
2021/07/28 06:15 LHSM 280615Z AUTO VRB02KT 8000 NCD 24/20 Q1014 NOSIG